KRDU

Raleigh-Durham International Airport

Raleigh/Durham, North Carolina, USA
METAR KRDU 212151Z 28006KT 10SM -RA FEW055 SCT100 BKN140 BKN250 31/22 A2976 RMK AO2 RAB48 SLP071 P0000 T03060222
Observed Flight Rules
Jun-21 @ 21:51 UTC (16 minutes ago) Visual Flight Rules
Wind Visibility Clouds Conditions
280° at 6 knots 10 miles
  • Few at 5,500' AGL
  • Scattered at 10,000' AGL
  • Broken at 14,000' AGL
  • Broken at 25,000' AGL
  • Light Rain
Temperatures Readings Precipitation
Current 31°C / 88°F
Dewpoint 22°C / 72°F
Humidity 59%
Altimeter 29.76" Hg
Pressure 1007.1 hPa
Elevation 130
Current Rain 0.005
METAR KRDU 212151Z 28006KT 10SM -RA FEW055 SCT100 BKN140 BKN250 31/22 A2976 RMK AO2 RAB48 SLP071 P0000 T03060222
Observed Flight Rules
Jun-21 @ 21:51 UTC
(16 minutes ago)
VFR
Wind Visibility
280° at 6 knots 10 miles
Clouds
  • Few at 5,500' AGL
  • Scattered at 10,000' AGL
  • Broken at 14,000' AGL
  • Broken at 25,000' AGL
Conditions
  • Light Rain
Temperature Dewpoint
31°C / 88°F 22°C / 72°F
Humidity Altimeter Pressure
59% 29.76" Hg 1007.1 hPa
Current Rain
0.005